createdAt,value
2018-12-09T00:01:07.174Z,94986.22
2018-12-09T00:03:37.648Z,94986.84
2018-12-09T00:06:08.129Z,94973.67
2018-12-09T00:08:37.918Z,94965.90
2018-12-09T00:11:09.427Z,94958.09
2018-12-09T00:13:39.420Z,94954.86
2018-12-09T00:16:10.590Z,94950.50
2018-12-09T00:18:41.276Z,94936.20
2018-12-09T00:21:11.279Z,94934.27
2018-12-09T00:23:41.295Z,94932.48
2018-12-09T00:26:13.067Z,94937.66
2018-12-09T00:28:43.825Z,94930.40
2018-12-09T00:31:13.495Z,94931.47
2018-12-09T00:33:44.326Z,94936.93
2018-12-09T00:36:15.468Z,94912.56
2018-12-09T00:38:46.367Z,94911.89
2018-12-09T00:41:16.501Z,94901.08
2018-12-09T00:43:47.332Z,94907.92
2018-12-09T00:46:18.215Z,94894.45
2018-12-09T00:48:49.780Z,94898.53
2018-12-09T00:51:19.677Z,94896.00
2018-12-09T00:53:50.209Z,94889.39
2018-12-09T00:56:20.770Z,94882.23
2018-12-09T00:58:54.305Z,94880.03
2018-12-09T01:01:25.355Z,94888.29
2018-12-09T01:03:55.509Z,94882.52
2018-12-09T01:06:26.573Z,94884.70
2018-12-09T01:08:58.426Z,94886.02
2018-12-09T01:11:28.566Z,94876.85
2018-12-09T01:13:59.720Z,94881.67
2018-12-09T01:16:29.636Z,94874.56
2018-12-09T01:19:03.493Z,94878.95
2018-12-09T01:21:33.616Z,94884.98
2018-12-09T01:24:04.693Z,94869.58
2018-12-09T01:26:35.326Z,94881.48
2018-12-09T01:29:08.554Z,94877.25
2018-12-09T01:31:38.537Z,94882.52
2018-12-09T01:34:14.526Z,94867.01
2018-12-09T01:36:44.619Z,94867.47
2018-12-09T01:39:15.769Z,94867.14
2018-12-09T01:41:47.769Z,94868.91
2018-12-09T01:44:19.670Z,94861.23
2018-12-09T01:46:50.675Z,94853.44
2018-12-09T01:49:25.404Z,94843.08
2018-12-09T01:52:01.560Z,94838.73
2018-12-09T01:54:31.831Z,94826.83
2018-12-09T01:57:03.550Z,94818.09
2018-12-09T01:59:36.012Z,94819.49
2018-12-09T02:02:09.456Z,94801.03
2018-12-09T02:04:43.588Z,94804.44
2018-12-09T02:07:14.772Z,94775.73
2018-12-09T02:09:44.870Z,94770.32
2018-12-09T02:12:16.883Z,94793.11
2018-12-09T02:14:46.765Z,94770.13
2018-12-09T02:17:16.797Z,94791.52
2018-12-09T02:19:47.868Z,94782.25
2018-12-09T02:22:18.900Z,94788.89
2018-12-09T02:24:49.814Z,94780.14
2018-12-09T02:27:19.802Z,94760.95
2018-12-09T02:29:52.821Z,94764.33
2018-12-09T02:32:26.769Z,94766.73
2018-12-09T02:34:57.042Z,94758.06
2018-12-09T02:37:28.444Z,94765.17
2018-12-09T02:40:00.771Z,94752.30
2018-12-09T02:42:33.785Z,94765.85
2018-12-09T02:45:03.228Z,94759.53
2018-12-09T02:47:34.000Z,94737.13
2018-12-09T02:50:04.038Z,94752.72
2018-12-09T02:52:35.021Z,94799.88
2018-12-09T02:55:05.470Z,94716.25
2018-12-09T02:57:35.406Z,94706.84
2018-12-09T03:00:06.997Z,94707.84
2018-12-09T03:02:37.278Z,94720.84
2018-12-09T03:05:08.481Z,94706.62
2018-12-09T03:07:39.025Z,94710.79
2018-12-09T03:10:10.797Z,94703.30
2018-12-09T03:12:42.057Z,94697.75
2018-12-09T03:15:14.303Z,94698.34
2018-12-09T03:17:45.193Z,94714.66
2018-12-09T03:20:15.763Z,94722.62
2018-12-09T03:22:46.497Z,94711.30
2018-12-09T03:25:17.425Z,94706.66
2018-12-09T03:27:47.759Z,94695.02
2018-12-09T03:30:18.027Z,94691.34
2018-12-09T03:32:48.110Z,94692.47
2018-12-09T03:35:21.907Z,94692.52
2018-12-09T03:37:53.083Z,94681.61
2018-12-09T03:40:28.092Z,94679.03
2018-12-09T03:43:06.079Z,94666.27
2018-12-09T03:45:35.578Z,94656.67
2018-12-09T03:48:05.219Z,94632.05
2018-12-09T03:50:35.414Z,94633.36
2018-12-09T03:53:06.515Z,94621.05
2018-12-09T03:55:39.148Z,94619.55
2018-12-09T03:58:16.260Z,94621.64
2018-12-09T04:00:47.265Z,94620.50
2018-12-09T04:03:18.440Z,94624.10
2018-12-09T04:05:48.347Z,94622.96
2018-12-09T04:08:19.409Z,94604.28
2018-12-09T04:10:50.436Z,94590.62
2018-12-09T04:13:21.388Z,94574.56
2018-12-09T04:15:51.374Z,94554.41
2018-12-09T04:18:22.309Z,94554.21
2018-12-09T04:20:56.564Z,94531.98
2018-12-09T04:23:28.169Z,94536.94
2018-12-09T04:26:00.522Z,94539.29
2018-12-09T04:28:32.227Z,94522.13
2018-12-09T04:31:04.533Z,94493.33
2018-12-09T04:33:35.630Z,94510.94
2018-12-09T04:36:06.297Z,94497.05
2018-12-09T04:38:35.676Z,94502.28
2018-12-09T04:41:06.464Z,94499.03
2018-12-09T04:43:38.627Z,94492.06
2018-12-09T04:46:09.358Z,94479.25
2018-12-09T04:48:39.498Z,94477.09
2018-12-09T04:51:10.703Z,94485.17
2018-12-09T04:53:41.574Z,94474.08
2018-12-09T04:56:11.471Z,94468.52
2018-12-09T04:58:51.285Z,94454.22
2018-12-09T05:01:26.833Z,94471.30
2018-12-09T05:03:56.796Z,94474.09
2018-12-09T05:06:29.856Z,94455.48
2018-12-09T05:09:04.748Z,94447.11
2018-12-09T05:11:34.793Z,94255.73
2018-12-09T05:14:05.661Z,94458.53
2018-12-09T05:16:35.837Z,94461.58
2018-12-09T05:19:06.704Z,94456.11
2018-12-09T05:21:36.081Z,94458.14
2018-12-09T05:24:05.655Z,94456.80
2018-12-09T05:26:35.685Z,94446.81
2018-12-09T05:29:06.797Z,94471.27
2018-12-09T05:31:36.169Z,94466.95
2018-12-09T05:34:05.763Z,94463.41
2018-12-09T05:36:35.825Z,94461.97
2018-12-09T05:39:07.875Z,94455.61
2018-12-09T05:41:38.807Z,94458.80
2018-12-09T05:44:11.052Z,94451.78
2018-12-09T05:46:41.797Z,94469.64
2018-12-09T05:49:13.210Z,94480.33
2018-12-09T05:51:43.576Z,94476.48
2018-12-09T05:54:19.488Z,94481.23
2018-12-09T05:56:50.697Z,94485.80
2018-12-09T05:59:21.795Z,94485.91
2018-12-09T06:01:52.478Z,94495.00
2018-12-09T06:04:22.667Z,94509.02
2018-12-09T06:06:53.837Z,94511.78
2018-12-09T06:09:24.959Z,94503.15
2018-12-09T06:11:54.761Z,94507.92
2018-12-09T06:14:27.669Z,94500.00
2018-12-09T06:16:58.826Z,94497.67
2018-12-09T06:19:29.710Z,94499.63
2018-12-09T06:22:04.960Z,94500.75
2018-12-09T06:24:34.796Z,94496.91
2018-12-09T06:27:05.941Z,94519.02
2018-12-09T06:29:35.745Z,94512.42
2018-12-09T06:32:07.949Z,94507.69
2018-12-09T06:34:38.992Z,94504.02
2018-12-09T06:37:09.863Z,94509.95
2018-12-09T06:39:41.980Z,94525.84
2018-12-09T06:42:13.051Z,94532.77
2018-12-09T06:44:43.620Z,94537.66
2018-12-09T06:47:13.709Z,94553.22
2018-12-09T06:49:47.999Z,94567.34
2018-12-09T06:52:19.774Z,94584.59
2018-12-09T06:54:55.050Z,94596.97
2018-12-09T06:57:26.258Z,94583.23
2018-12-09T06:59:58.177Z,94595.71
2018-12-09T07:02:31.048Z,94585.20
2018-12-09T07:05:07.649Z,94584.58
2018-12-09T07:07:39.133Z,94583.00
2018-12-09T07:10:10.826Z,94580.89
2018-12-09T07:12:42.102Z,94577.23
2018-12-09T07:15:13.487Z,94565.23
2018-12-09T07:17:44.172Z,94541.52
2018-12-09T07:20:15.063Z,94540.04
2018-12-09T07:22:52.065Z,94539.64
2018-12-09T07:25:22.109Z,94531.88
2018-12-09T07:27:53.245Z,94535.06
2018-12-09T07:30:24.211Z,94539.77
2018-12-09T07:32:55.337Z,94549.39
2018-12-09T07:35:25.360Z,94550.73
2018-12-09T07:37:56.570Z,94546.84
2018-12-09T07:40:29.301Z,94561.39
2018-12-09T07:43:00.516Z,94552.75
2018-12-09T07:45:31.364Z,94539.95
2018-12-09T07:48:01.984Z,94550.92
2018-12-09T07:50:32.665Z,94553.54
2018-12-09T07:53:03.512Z,94548.12
2018-12-09T07:55:33.893Z,94552.41
2018-12-09T07:58:04.432Z,94547.52
2018-12-09T08:00:36.093Z,94559.58
2018-12-09T08:03:06.274Z,94567.34
2018-12-09T08:05:35.701Z,94574.41
2018-12-09T08:08:07.594Z,94567.16
2018-12-09T08:10:38.304Z,94576.73
2018-12-09T08:13:09.535Z,94577.62
2018-12-09T08:15:39.957Z,94561.98
2018-12-09T08:18:10.607Z,94566.30
2018-12-09T08:20:41.577Z,94575.11
2018-12-09T08:23:12.608Z,94586.04
2018-12-09T08:25:42.429Z,94589.47
2018-12-09T08:28:14.453Z,94595.17
2018-12-09T08:30:45.245Z,94627.61
2018-12-09T08:33:16.285Z,94607.97
2018-12-09T08:35:47.201Z,94612.52
2018-12-09T08:38:17.402Z,94614.75
2018-12-09T08:41:02.621Z,94635.58
2018-12-09T08:43:33.593Z,94636.77
2018-12-09T08:46:04.418Z,94641.41
2018-12-09T08:48:34.703Z,94632.11
2018-12-09T08:51:05.726Z,94667.69
2018-12-09T08:53:35.808Z,94636.99
2018-12-09T08:56:06.713Z,94645.23
2018-12-09T08:58:36.304Z,94660.78
2018-12-09T09:01:07.837Z,94660.78
2018-12-09T09:03:38.619Z,94654.47
2018-12-09T09:06:09.570Z,94659.91
2018-12-09T09:08:39.796Z,94663.24
2018-12-09T09:11:10.767Z,94663.70
2018-12-09T09:13:41.488Z,94655.69
2018-12-09T09:16:12.129Z,94679.97
2018-12-09T09:18:42.978Z,94684.20
2018-12-09T09:21:13.859Z,94681.67
2018-12-09T09:23:44.549Z,94684.66
2018-12-09T09:26:15.528Z,94684.72
2018-12-09T09:28:51.625Z,94688.84
2018-12-09T09:31:22.748Z,94697.39
2018-12-09T09:33:57.837Z,94709.16
2018-12-09T09:36:29.984Z,94696.11
2018-12-09T09:39:00.903Z,94705.02
2018-12-09T09:41:34.170Z,94724.60
2018-12-09T09:44:04.989Z,94701.47
2018-12-09T09:46:35.946Z,94705.65
2018-12-09T09:49:06.048Z,94697.14
2018-12-09T09:51:35.417Z,94692.93
2018-12-09T09:54:04.904Z,94694.20
2018-12-09T09:56:36.026Z,94677.20
2018-12-09T09:59:07.011Z,94666.72
2018-12-09T10:01:36.487Z,94669.29
2018-12-09T10:04:08.058Z,94674.25
2018-12-09T10:06:39.826Z,94675.95
2018-12-09T10:09:12.462Z,94686.63
2018-12-09T10:11:42.060Z,94665.90
2018-12-09T10:14:13.099Z,94656.83
2018-12-09T10:16:44.597Z,94659.92
2018-12-09T10:19:14.937Z,94665.87
2018-12-09T10:21:45.017Z,94667.53
2018-12-09T10:24:17.134Z,94660.64
2018-12-09T10:26:47.729Z,94657.87
2018-12-09T10:29:36.361Z,94655.33
2018-12-09T10:32:07.028Z,94652.55
2018-12-09T10:34:38.933Z,94658.33
2018-12-09T10:37:09.248Z,94639.66
2018-12-09T10:39:39.285Z,94645.15
2018-12-09T10:42:10.180Z,94634.12
2018-12-09T10:44:41.109Z,94632.49
2018-12-09T10:47:11.171Z,94649.33
2018-12-09T10:49:42.157Z,94630.05
2018-12-09T10:52:13.365Z,94661.62
2018-12-09T10:54:43.136Z,94653.19
2018-12-09T10:57:14.268Z,94681.09
2018-12-09T10:59:44.486Z,94668.62
2018-12-09T11:02:18.911Z,94676.77
2018-12-09T11:04:56.154Z,94668.88
2018-12-09T11:07:28.521Z,94674.74
2018-12-09T11:10:00.483Z,94675.39
2018-12-09T11:12:30.292Z,94671.09
2018-12-09T11:15:01.527Z,94673.80
2018-12-09T11:17:31.255Z,94660.88
2018-12-09T11:20:02.469Z,94673.24
2018-12-09T11:22:33.412Z,94671.00
2018-12-09T11:25:05.004Z,94671.22
2018-12-09T11:27:35.392Z,94663.37
2018-12-09T11:30:07.970Z,94678.42
2018-12-09T11:32:37.387Z,94675.63
2018-12-09T11:35:10.715Z,94663.37
2018-12-09T11:37:41.384Z,94671.25
2018-12-09T11:40:15.776Z,94654.30
2018-12-09T11:42:51.221Z,94670.66
2018-12-09T11:45:28.308Z,94669.10
2018-12-09T11:47:59.507Z,94678.88
2018-12-09T11:50:29.697Z,94678.36
2018-12-09T11:53:01.739Z,94673.63
2018-12-09T11:55:31.537Z,94676.47
2018-12-09T11:58:02.613Z,94691.27
2018-12-09T12:00:32.327Z,94685.37
2018-12-09T12:03:09.474Z,94683.16
2018-12-09T12:05:39.380Z,94672.86
2018-12-09T12:08:10.494Z,94672.00
2018-12-09T12:10:45.289Z,94690.48
2018-12-09T12:13:17.725Z,94664.64
2018-12-09T12:15:48.609Z,94659.69
2018-12-09T12:18:22.272Z,94676.66
2018-12-09T12:20:59.458Z,94668.13
2018-12-09T12:23:30.689Z,94677.02
2018-12-09T12:26:01.198Z,94662.59
2018-12-09T12:28:31.835Z,94667.86
2018-12-09T12:31:02.833Z,94674.38
2018-12-09T12:33:33.693Z,94663.50
2018-12-09T12:36:04.753Z,94677.35
2018-12-09T12:38:34.753Z,94681.27
2018-12-09T12:41:05.866Z,94691.39
2018-12-09T12:43:39.623Z,94693.39
2018-12-09T12:46:09.708Z,94684.98
2018-12-09T12:48:39.756Z,94681.98
2018-12-09T12:51:11.746Z,94678.20
2018-12-09T12:53:45.038Z,94676.30
2018-12-09T12:56:15.756Z,94676.08
2018-12-09T12:58:45.874Z,94667.34
2018-12-09T13:01:17.173Z,94670.15
2018-12-09T13:03:48.096Z,94679.56
2018-12-09T13:06:19.061Z,94691.75
2018-12-09T13:08:48.746Z,94686.55
2018-12-09T13:11:19.870Z,94690.94
2018-12-09T13:13:50.104Z,94690.48
2018-12-09T13:16:21.770Z,94701.20
2018-12-09T13:18:58.721Z,94695.80
2018-12-09T13:21:29.788Z,94700.45
2018-12-09T13:24:03.818Z,94698.83
2018-12-09T13:26:36.194Z,94716.36
2018-12-09T13:29:08.875Z,94714.79
2018-12-09T13:31:40.375Z,94710.84
2018-12-09T13:34:09.905Z,94706.81
2018-12-09T13:36:40.900Z,94708.73
2018-12-09T13:39:12.168Z,94715.38
2018-12-09T13:41:43.061Z,94708.23
2018-12-09T13:44:14.074Z,94712.95
2018-12-09T13:46:46.467Z,94710.34
2018-12-09T13:49:17.577Z,94713.39
2018-12-09T13:51:48.248Z,94713.03
2018-12-09T13:54:18.957Z,94708.36
2018-12-09T13:56:51.850Z,94702.59
2018-12-09T13:59:23.521Z,94705.72
2018-12-09T14:01:54.104Z,94693.83
2018-12-09T14:04:24.981Z,94702.81
2018-12-09T14:06:55.573Z,94689.20
2018-12-09T14:09:26.022Z,94695.02
2018-12-09T14:11:59.773Z,94695.48
2018-12-09T14:14:30.324Z,94707.25
2018-12-09T14:17:02.221Z,94696.44
2018-12-09T14:19:33.277Z,94692.08
2018-12-09T14:22:04.764Z,94716.74
2018-12-09T14:24:34.206Z,94709.39
2018-12-09T14:27:05.122Z,94714.22
2018-12-09T14:29:36.320Z,94698.11
2018-12-09T14:32:07.551Z,94698.08
2018-12-09T14:34:36.989Z,94688.13
2018-12-09T14:37:08.227Z,94697.07
2018-12-09T14:39:40.313Z,94693.39
2018-12-09T14:42:12.296Z,94680.67
2018-12-09T14:44:43.273Z,94683.34
2018-12-09T14:47:13.993Z,94698.89
2018-12-09T14:49:49.008Z,94694.13
2018-12-09T14:52:18.368Z,94699.55
2018-12-09T14:54:48.205Z,94696.77
2018-12-09T14:57:19.320Z,94697.78
2018-12-09T14:59:50.813Z,94705.91
2018-12-09T15:02:21.445Z,94701.63
2018-12-09T15:04:52.450Z,94707.79
2018-12-09T15:07:22.500Z,94691.82
2018-12-09T15:09:53.609Z,94683.25
2018-12-09T15:12:24.854Z,94693.88
2018-12-09T15:14:54.266Z,94692.70
2018-12-09T15:17:25.374Z,94693.19
2018-12-09T15:19:56.282Z,94690.65
2018-12-09T15:22:30.230Z,94714.60
2018-12-09T15:25:01.301Z,94694.46
2018-12-09T15:27:32.987Z,94693.12
2018-12-09T15:30:02.510Z,94688.07
2018-12-09T15:32:33.351Z,94679.77
2018-12-09T15:35:03.630Z,94675.13
2018-12-09T15:37:34.790Z,94662.91
2018-12-09T15:40:05.051Z,94679.56
2018-12-09T15:42:35.414Z,94681.42
2018-12-09T15:45:07.607Z,94695.69
2018-12-09T15:47:37.056Z,94691.08
2018-12-09T15:50:09.535Z,94686.23
2018-12-09T15:52:40.470Z,94708.09
2018-12-09T15:55:12.212Z,94705.06
2018-12-09T15:57:42.520Z,94704.27
2018-12-09T16:00:12.520Z,94701.38
2018-12-09T16:02:43.682Z,94701.30
2018-12-09T16:05:14.786Z,94705.14
2018-12-09T16:08:13.482Z,94711.73
2018-12-09T16:10:43.287Z,94702.95
2018-12-09T16:14:34.988Z,94705.17
2018-12-09T16:17:06.298Z,94713.50
2018-12-09T16:19:37.177Z,94712.80
2018-12-09T16:22:07.296Z,94711.66
2018-12-09T16:24:37.407Z,94716.16
2018-12-09T16:27:10.492Z,94718.11
2018-12-09T16:29:46.518Z,94707.27
2018-12-09T16:32:22.359Z,94714.50
2018-12-09T16:35:38.572Z,94719.00
2018-12-09T16:38:09.285Z,94715.19
2018-12-09T16:40:40.436Z,94713.55
2018-12-09T16:43:19.258Z,94730.54
2018-12-09T16:45:50.275Z,94735.83
2018-12-09T16:48:21.594Z,94721.65
2018-12-09T16:51:00.244Z,94738.03
2018-12-09T16:53:31.608Z,94739.20
2018-12-09T16:56:01.656Z,94744.53
2018-12-09T16:58:33.489Z,94733.66
2018-12-09T17:01:03.716Z,94730.88
2018-12-09T17:03:35.431Z,94739.29
2018-12-09T17:06:13.676Z,94743.88
2018-12-09T17:08:44.568Z,94742.76
2018-12-09T17:11:15.315Z,94749.33
2018-12-09T17:13:46.213Z,94740.76
2018-12-09T17:16:16.944Z,94739.61
2018-12-09T17:18:47.749Z,94745.84
2018-12-09T17:21:18.496Z,94742.13
2018-12-09T17:23:55.484Z,94756.82
2018-12-09T17:26:26.493Z,94752.75
2018-12-09T17:28:56.633Z,94742.01
2018-12-09T17:31:30.427Z,94744.45
2018-12-09T17:34:01.621Z,94752.70
2018-12-09T17:36:32.635Z,94745.64
2018-12-09T17:39:04.593Z,94756.64
2018-12-09T17:41:36.757Z,94756.45
2018-12-09T17:44:10.805Z,94753.48
2018-12-09T17:46:41.365Z,94753.03
2018-12-09T17:49:11.605Z,94756.59
2018-12-09T17:51:42.589Z,94763.31
2018-12-09T17:54:12.910Z,94760.76
2018-12-09T17:56:47.613Z,94759.81
2018-12-09T17:59:17.816Z,94758.55
2018-12-09T18:01:48.834Z,94752.88
2018-12-09T18:04:27.552Z,94750.58
2018-12-09T18:07:00.166Z,94745.28
2018-12-09T18:09:32.696Z,94763.82
2018-12-09T18:12:02.837Z,94776.60
2018-12-09T18:14:36.628Z,94770.94
2018-12-09T18:17:08.008Z,94781.09
2018-12-09T18:19:38.108Z,94780.85
2018-12-09T18:22:09.910Z,94789.05
2018-12-09T18:24:44.257Z,94785.48
2018-12-09T18:27:17.554Z,94793.87
2018-12-09T18:29:51.576Z,94789.60
2018-12-09T18:32:25.601Z,94773.77
2018-12-09T18:34:56.582Z,94780.27
2018-12-09T18:37:26.782Z,94783.88
2018-12-09T18:39:57.113Z,94784.06
2018-12-09T18:42:27.936Z,94778.40
2018-12-09T18:44:58.497Z,94788.78
2018-12-09T18:47:28.781Z,94789.71
2018-12-09T18:49:59.816Z,94775.15
2018-12-09T18:52:30.056Z,94782.77
2018-12-09T18:55:04.224Z,94803.33
2018-12-09T18:57:37.395Z,94795.00
2018-12-09T19:00:09.089Z,94797.20
2018-12-09T19:02:44.862Z,94791.42
2018-12-09T19:05:18.916Z,94797.79
2018-12-09T19:07:53.009Z,94796.50
2018-12-09T19:10:26.001Z,94792.67
2018-12-09T19:12:57.019Z,94795.31
2018-12-09T19:15:28.996Z,94790.60
2018-12-09T19:18:01.033Z,94782.16
2018-12-09T19:20:32.189Z,94800.66
2018-12-09T19:23:06.048Z,94795.39
2018-12-09T19:25:37.304Z,94804.03
2018-12-09T19:28:08.150Z,94804.72
2018-12-09T19:30:48.189Z,94800.91
2018-12-09T19:33:16.260Z,94822.52
2018-12-09T19:35:48.694Z,94823.09
2018-12-09T19:38:21.472Z,94822.06
2018-12-09T19:40:59.676Z,94827.39
2018-12-09T19:43:36.088Z,94844.11
2018-12-09T19:46:07.406Z,94835.59
2018-12-09T19:48:37.899Z,94846.33
2018-12-09T19:51:08.478Z,94862.14
2018-12-09T19:53:41.286Z,94853.58
2018-12-09T19:56:17.220Z,94863.53
2018-12-09T19:58:52.680Z,94872.18
2018-12-09T20:01:26.063Z,94863.75
2018-12-09T20:03:57.317Z,94867.36
2018-12-09T20:06:27.500Z,94886.73
2018-12-09T20:08:58.780Z,94883.98
2018-12-09T20:11:29.724Z,94876.69
2018-12-09T20:14:05.477Z,94873.45
2018-12-09T20:16:40.514Z,94873.70
2018-12-09T20:19:11.035Z,94880.39
2018-12-09T20:21:45.901Z,94874.08
2018-12-09T20:24:19.257Z,94866.91
2018-12-09T20:26:49.307Z,94881.22
2018-12-09T20:29:20.368Z,94891.05
2018-12-09T20:31:50.392Z,94888.59
2018-12-09T20:34:21.435Z,94896.45
2018-12-09T20:36:52.453Z,94898.55
2018-12-09T20:39:23.370Z,94891.83
2018-12-09T20:41:53.498Z,94898.30
2018-12-09T20:44:24.536Z,94911.38
2018-12-09T20:46:54.584Z,94915.64
2018-12-09T20:49:29.287Z,94916.66
2018-12-09T20:51:59.497Z,94910.55
2018-12-09T20:54:30.574Z,94918.39
2018-12-09T20:57:03.644Z,94919.66
2018-12-09T20:59:37.345Z,94924.53
2018-12-09T21:02:12.153Z,94923.27
2018-12-09T21:04:48.404Z,94932.03
2018-12-09T21:07:19.333Z,94926.63
2018-12-09T21:09:55.308Z,94933.55
2018-12-09T21:12:26.236Z,94933.79
2018-12-09T21:15:03.226Z,94945.10
2018-12-09T21:17:33.733Z,94944.41
2018-12-09T21:20:08.949Z,94950.76
2018-12-09T21:22:43.931Z,94945.19
2018-12-09T21:25:14.056Z,94961.13
2018-12-09T21:27:44.119Z,94958.71
2018-12-09T21:30:14.828Z,94964.38
2018-12-09T21:32:46.570Z,94975.11
2018-12-09T21:35:18.762Z,94973.39
2018-12-09T21:37:49.464Z,94985.16
2018-12-09T21:40:19.606Z,94984.95
2018-12-09T21:42:49.637Z,94987.13
2018-12-09T21:45:21.153Z,94992.09
2018-12-09T21:47:51.916Z,94984.34
2018-12-09T21:50:22.781Z,94992.66
2018-12-09T21:52:52.821Z,94996.71
2018-12-09T21:55:26.667Z,94999.25
2018-12-09T21:57:57.880Z,94997.16
2018-12-09T22:00:28.727Z,95006.30
2018-12-09T22:02:59.773Z,95013.92
2018-12-09T22:05:50.855Z,95021.77
2018-12-09T22:08:27.964Z,95020.38
2018-12-09T22:10:58.951Z,95018.89
2018-12-09T22:13:28.971Z,95027.33
2018-12-09T22:16:04.161Z,95039.11
2018-12-09T22:18:36.876Z,95034.36
2018-12-09T22:21:07.929Z,95054.11
2018-12-09T22:23:38.009Z,95053.42
2018-12-09T22:26:10.062Z,95052.27
2018-12-09T22:28:40.998Z,95061.41
2018-12-09T22:31:14.812Z,95062.89
2018-12-09T22:33:46.948Z,95067.05
2018-12-09T22:36:21.848Z,95071.80
2018-12-09T22:38:52.591Z,95076.76
2018-12-09T22:41:23.076Z,95075.48
2018-12-09T22:43:53.464Z,95082.20
2018-12-09T22:46:24.071Z,95072.61
2018-12-09T22:48:54.247Z,95087.52
2018-12-09T22:51:25.100Z,95096.07
2018-12-09T22:53:55.420Z,95098.70
2018-12-09T22:56:26.230Z,95104.72
2018-12-09T22:58:56.725Z,95108.55
2018-12-09T23:01:27.662Z,95110.73
2018-12-09T23:03:57.985Z,95111.55
2018-12-09T23:06:28.146Z,95123.79
2018-12-09T23:08:58.972Z,95123.33
2018-12-09T23:11:29.546Z,95132.67
2018-12-09T23:14:00.262Z,95135.68
2018-12-09T23:16:31.001Z,95134.40
2018-12-09T23:19:01.272Z,95133.73
2018-12-09T23:21:36.834Z,95136.94
2018-12-09T23:24:09.942Z,95144.42
2018-12-09T23:26:41.149Z,95141.34
2018-12-09T23:29:13.353Z,95139.48
2018-12-09T23:31:44.388Z,95148.00
2018-12-09T23:34:17.306Z,95163.01
2018-12-09T23:36:53.977Z,95160.32
2018-12-09T23:39:25.521Z,95170.36
2018-12-09T23:41:56.186Z,95174.77
2018-12-09T23:44:26.272Z,95182.14
2018-12-09T23:46:57.365Z,95190.46
2018-12-09T23:49:33.289Z,95193.70
2018-12-09T23:52:05.289Z,95196.36
2018-12-09T23:54:36.852Z,95198.75
2018-12-09T23:57:08.641Z,95200.84
2018-12-09T23:59:41.348Z,95204.29
